createdAt,value
2016-12-04T00:00:42.448Z,1026.043
2016-12-04T00:03:38.571Z,1026.035
2016-12-04T00:06:34.695Z,1026.055
2016-12-04T00:09:30.826Z,1026.072
2016-12-04T00:12:26.965Z,1026.061
2016-12-04T00:15:23.074Z,1026.073
2016-12-04T00:18:19.162Z,1026.117
2016-12-04T00:21:15.294Z,1026.107
2016-12-04T00:24:11.441Z,1026.084
2016-12-04T00:27:07.614Z,1026.122
2016-12-04T00:30:03.843Z,1026.131
2016-12-04T00:32:59.942Z,1026.169
2016-12-04T00:35:55.996Z,1026.169
2016-12-04T00:38:52.085Z,1026.181
2016-12-04T00:41:48.188Z,1026.191
2016-12-04T00:44:44.336Z,1026.224
2016-12-04T00:47:40.411Z,1026.239
2016-12-04T00:50:36.572Z,1026.229
2016-12-04T00:53:32.668Z,1026.229
2016-12-04T00:56:28.768Z,1026.277
2016-12-04T00:59:24.871Z,1026.321
2016-12-04T01:02:21.003Z,1026.367
2016-12-04T01:05:17.117Z,1026.413
2016-12-04T01:08:13.227Z,1026.431
2016-12-04T01:11:09.367Z,1026.462
2016-12-04T01:14:05.500Z,1026.473
2016-12-04T01:17:01.754Z,1026.420
2016-12-04T01:19:57.897Z,1026.414
2016-12-04T01:22:54.017Z,1026.380
2016-12-04T01:25:50.124Z,1026.424
2016-12-04T01:28:46.262Z,1026.463
2016-12-04T01:31:42.412Z,1026.460
2016-12-04T01:34:38.461Z,1026.424
2016-12-04T01:37:34.624Z,1026.426
2016-12-04T01:40:30.704Z,1026.448
2016-12-04T01:43:26.856Z,1026.476
2016-12-04T01:46:22.940Z,1026.486
2016-12-04T01:49:19.040Z,1026.450
2016-12-04T01:52:15.210Z,1026.457
2016-12-04T01:55:11.301Z,1026.438
2016-12-04T01:58:07.441Z,1026.412
2016-12-04T02:01:03.635Z,1026.416
2016-12-04T02:03:59.744Z,1026.386
2016-12-04T02:06:55.869Z,1026.371
2016-12-04T02:09:51.957Z,1026.343
2016-12-04T02:12:48.148Z,1026.326
2016-12-04T02:15:44.277Z,1026.366
2016-12-04T02:18:40.473Z,1026.409
2016-12-04T02:21:36.485Z,1026.422
2016-12-04T02:24:32.589Z,1026.433
2016-12-04T02:27:28.709Z,1026.464
2016-12-04T02:30:24.812Z,1026.454
2016-12-04T02:33:20.984Z,1026.456
2016-12-04T02:36:17.166Z,1026.499
2016-12-04T02:39:13.232Z,1026.514
2016-12-04T02:42:09.407Z,1026.543
2016-12-04T02:45:05.377Z,1026.579
2016-12-04T02:48:01.460Z,1026.568
2016-12-04T02:50:57.606Z,1026.534
2016-12-04T02:53:53.682Z,1026.597
2016-12-04T02:56:49.855Z,1026.576
2016-12-04T02:59:45.993Z,1026.511
2016-12-04T03:02:42.119Z,1026.517
2016-12-04T03:05:38.263Z,1026.548
2016-12-04T03:08:34.387Z,1026.534
2016-12-04T03:11:30.535Z,1026.537
2016-12-04T03:14:26.689Z,1026.566
2016-12-04T03:17:22.850Z,1026.564
2016-12-04T03:20:18.990Z,1026.601
2016-12-04T03:23:15.139Z,1026.646
2016-12-04T03:26:11.287Z,1026.672
2016-12-04T03:29:07.370Z,1026.620
2016-12-04T03:32:03.491Z,1026.610
2016-12-04T03:34:59.675Z,1026.581
2016-12-04T03:37:55.756Z,1026.600
2016-12-04T03:40:51.908Z,1026.574
2016-12-04T03:43:48.001Z,1026.558
2016-12-04T03:46:44.203Z,1026.466
2016-12-04T03:49:40.341Z,1026.477
2016-12-04T03:52:36.483Z,1026.506
2016-12-04T03:55:32.610Z,1026.498
2016-12-04T03:58:28.698Z,1026.572
2016-12-04T04:01:24.751Z,1026.609
2016-12-04T04:04:20.967Z,1026.625
2016-12-04T04:07:17.220Z,1026.629
2016-12-04T04:10:13.233Z,1026.585
2016-12-04T04:13:09.397Z,1026.555
2016-12-04T04:16:05.519Z,1026.558
2016-12-04T04:19:01.586Z,1026.556
2016-12-04T04:21:57.697Z,1026.531
2016-12-04T04:24:53.890Z,1026.530
2016-12-04T04:27:50.047Z,1026.519
2016-12-04T04:30:46.164Z,1026.507
2016-12-04T04:33:42.291Z,1026.499
2016-12-04T04:36:38.384Z,1026.543
2016-12-04T04:39:34.497Z,1026.559
2016-12-04T04:42:30.649Z,1026.556
2016-12-04T04:45:26.803Z,1026.583
2016-12-04T04:48:22.913Z,1026.619
2016-12-04T04:51:19.107Z,1026.600
2016-12-04T04:54:15.237Z,1026.579
2016-12-04T04:57:11.356Z,1026.650
2016-12-04T05:00:07.460Z,1026.629
2016-12-04T05:03:03.536Z,1026.654
2016-12-04T05:05:59.516Z,1026.664
2016-12-04T05:08:55.639Z,1026.653
2016-12-04T05:11:51.670Z,1026.670
2016-12-04T05:14:47.582Z,1026.737
2016-12-04T05:17:43.607Z,1026.727
2016-12-04T05:20:39.622Z,1026.681
2016-12-04T05:23:35.715Z,1026.680
2016-12-04T05:26:31.871Z,1026.647
2016-12-04T05:29:27.983Z,1026.654
2016-12-04T05:32:23.981Z,1026.679
2016-12-04T05:35:20.017Z,1026.712
2016-12-04T05:38:16.059Z,1026.719
2016-12-04T05:41:12.107Z,1026.712
2016-12-04T05:44:08.237Z,1026.712
2016-12-04T05:47:04.331Z,1026.718
2016-12-04T05:50:00.479Z,1026.738
2016-12-04T05:52:56.585Z,1026.807
2016-12-04T05:55:52.650Z,1026.830
2016-12-04T05:58:48.680Z,1026.837
2016-12-04T06:01:44.700Z,1026.855
2016-12-04T06:04:40.824Z,1026.899
2016-12-04T06:07:36.803Z,1026.916
2016-12-04T06:10:32.901Z,1026.945
2016-12-04T06:13:29.005Z,1026.989
2016-12-04T06:16:25.090Z,1027.038
2016-12-04T06:19:21.106Z,1027.058
2016-12-04T06:22:17.078Z,1027.049
2016-12-04T06:25:13.135Z,1027.043
2016-12-04T06:28:09.208Z,1027.117
2016-12-04T06:31:05.203Z,1027.141
2016-12-04T06:34:01.246Z,1027.171
2016-12-04T06:36:57.258Z,1027.275
2016-12-04T06:39:53.337Z,1027.298
2016-12-04T06:42:49.310Z,1027.341
2016-12-04T06:45:45.366Z,1027.380
2016-12-04T06:48:41.423Z,1027.423
2016-12-04T06:51:37.531Z,1027.453
2016-12-04T06:54:33.466Z,1027.495
2016-12-04T06:57:29.579Z,1027.545
2016-12-04T07:00:25.654Z,1027.575
2016-12-04T07:03:21.780Z,1027.598
2016-12-04T07:06:17.808Z,1027.595
2016-12-04T07:09:13.794Z,1027.644
2016-12-04T07:12:09.752Z,1027.675
2016-12-04T07:15:05.798Z,1027.697
2016-12-04T07:18:01.913Z,1027.702
2016-12-04T07:20:58.013Z,1027.722
2016-12-04T07:23:54.010Z,1027.717
2016-12-04T07:26:50.099Z,1027.763
2016-12-04T07:29:46.157Z,1027.786
2016-12-04T07:32:42.309Z,1027.775
2016-12-04T07:35:38.540Z,1027.782
2016-12-04T07:38:34.461Z,1027.736
2016-12-04T07:41:30.569Z,1027.721
2016-12-04T07:44:26.620Z,1027.709
2016-12-04T07:47:22.721Z,1027.730
2016-12-04T07:50:18.794Z,1027.762
2016-12-04T07:53:14.804Z,1027.776
2016-12-04T07:56:10.911Z,1027.807
2016-12-04T07:59:06.953Z,1027.860
2016-12-04T08:02:03.012Z,1027.893
2016-12-04T08:04:59.004Z,1027.903
2016-12-04T08:07:55.068Z,1027.963
2016-12-04T08:10:51.051Z,1027.999
2016-12-04T08:13:47.144Z,1028.018
2016-12-04T08:16:43.195Z,1028.041
2016-12-04T08:19:39.202Z,1028.031
2016-12-04T08:22:35.191Z,1028.051
2016-12-04T08:25:31.264Z,1028.027
2016-12-04T08:28:27.361Z,1028.050
2016-12-04T08:31:23.322Z,1028.135
2016-12-04T08:34:19.348Z,1028.179
2016-12-04T08:37:15.436Z,1028.170
2016-12-04T08:40:11.535Z,1028.147
2016-12-04T08:43:07.506Z,1028.127
2016-12-04T08:46:03.610Z,1028.181
2016-12-04T08:48:59.685Z,1028.249
2016-12-04T08:51:55.631Z,1028.270
2016-12-04T08:54:51.765Z,1028.299
2016-12-04T08:57:47.729Z,1028.327
2016-12-04T09:00:43.785Z,1028.350
2016-12-04T09:03:39.751Z,1028.383
2016-12-04T09:06:35.757Z,1028.397
2016-12-04T09:09:31.795Z,1028.418
2016-12-04T09:12:27.899Z,1028.422
2016-12-04T09:15:23.863Z,1028.466
2016-12-04T09:18:19.915Z,1028.495
2016-12-04T09:21:15.933Z,1028.495
2016-12-04T09:24:12.007Z,1028.516
2016-12-04T09:27:08.109Z,1028.517
2016-12-04T09:30:04.056Z,1028.557
2016-12-04T09:33:00.029Z,1028.599
2016-12-04T09:35:56.038Z,1028.645
2016-12-04T09:38:52.258Z,1028.682
2016-12-04T09:41:48.364Z,1028.698
2016-12-04T09:44:44.449Z,1028.704
2016-12-04T09:47:40.404Z,1028.698
2016-12-04T09:50:36.527Z,1028.673
2016-12-04T09:53:32.567Z,1028.661
2016-12-04T09:56:28.610Z,1028.665
2016-12-04T09:59:24.591Z,1028.675
2016-12-04T10:02:20.605Z,1028.658
2016-12-04T10:05:16.698Z,1028.633
2016-12-04T10:08:12.665Z,1028.575
2016-12-04T10:11:08.692Z,1028.551
2016-12-04T10:14:04.768Z,1028.540
2016-12-04T10:17:00.751Z,1028.517
2016-12-04T10:19:56.842Z,1028.542
2016-12-04T10:22:52.887Z,1028.564
2016-12-04T10:25:48.880Z,1028.558
2016-12-04T10:28:44.974Z,1028.547
2016-12-04T10:31:40.931Z,1028.523
2016-12-04T10:34:36.998Z,1028.489
2016-12-04T10:37:33.066Z,1028.496
2016-12-04T10:40:29.018Z,1028.508
2016-12-04T10:43:24.998Z,1028.535
2016-12-04T10:46:20.952Z,1028.573
2016-12-04T10:49:17.080Z,1028.583
2016-12-04T10:52:13.123Z,1028.569
2016-12-04T10:55:09.267Z,1028.587
2016-12-04T10:58:05.301Z,1028.608
2016-12-04T11:01:01.223Z,1028.610
2016-12-04T11:03:57.256Z,1028.641
2016-12-04T11:06:53.379Z,1028.682
2016-12-04T11:09:49.420Z,1028.663
2016-12-04T11:12:45.521Z,1028.632
2016-12-04T11:15:41.419Z,1028.628
2016-12-04T11:18:37.475Z,1028.634
2016-12-04T11:21:33.542Z,1028.601
2016-12-04T11:24:29.557Z,1028.627
2016-12-04T11:27:25.588Z,1028.625
2016-12-04T11:30:21.663Z,1028.645
2016-12-04T11:33:17.729Z,1028.692
2016-12-04T11:36:13.810Z,1028.687
2016-12-04T11:39:09.774Z,1028.679
2016-12-04T11:42:05.783Z,1028.676
2016-12-04T11:45:01.783Z,1028.704
2016-12-04T11:47:57.842Z,1028.690
2016-12-04T11:50:53.823Z,1028.675
2016-12-04T11:53:49.973Z,1028.657
2016-12-04T11:56:45.972Z,1028.659
2016-12-04T11:59:41.992Z,1028.602
2016-12-04T12:02:38.014Z,1028.585
2016-12-04T12:05:34.061Z,1028.580
2016-12-04T12:08:30.091Z,1028.568
2016-12-04T12:11:26.155Z,1028.587
2016-12-04T12:14:22.145Z,1028.566
2016-12-04T12:17:18.274Z,1028.574
2016-12-04T12:20:14.342Z,1028.584
2016-12-04T12:23:10.320Z,1028.587
2016-12-04T12:26:06.312Z,1028.591
2016-12-04T12:29:02.335Z,1028.546
2016-12-04T12:31:58.421Z,1028.565
2016-12-04T12:34:54.495Z,1028.554
2016-12-04T12:37:50.590Z,1028.536
2016-12-04T12:40:46.613Z,1028.569
2016-12-04T12:43:42.689Z,1028.588
2016-12-04T12:46:38.723Z,1028.597
2016-12-04T12:49:34.726Z,1028.607
2016-12-04T12:52:30.820Z,1028.621
2016-12-04T12:55:26.834Z,1028.666
2016-12-04T12:58:22.846Z,1028.650
2016-12-04T13:01:18.820Z,1028.602
2016-12-04T13:04:14.893Z,1028.595
2016-12-04T13:07:10.874Z,1028.555
2016-12-04T13:10:06.842Z,1028.548
2016-12-04T13:13:02.974Z,1028.561
2016-12-04T13:15:59.062Z,1028.552
2016-12-04T13:18:55.075Z,1028.529
2016-12-04T13:21:51.150Z,1028.518
2016-12-04T13:24:47.234Z,1028.527
2016-12-04T13:27:43.166Z,1028.543
2016-12-04T13:30:39.206Z,1028.516
2016-12-04T13:36:31.212Z,1028.531
2016-12-04T13:39:27.311Z,1028.539
2016-12-04T13:42:23.272Z,1028.536
2016-12-04T13:45:19.501Z,1028.520
2016-12-04T13:48:15.535Z,1028.474
2016-12-04T13:51:11.510Z,1028.439
2016-12-04T13:54:07.518Z,1028.467
2016-12-04T13:57:03.522Z,1028.494
2016-12-04T13:59:59.653Z,1028.486
2016-12-04T14:02:55.672Z,1028.515
2016-12-04T14:05:51.714Z,1028.515
2016-12-04T14:08:47.644Z,1028.521
2016-12-04T14:11:43.598Z,1028.538
2016-12-04T14:14:39.564Z,1028.518
2016-12-04T14:17:35.552Z,1028.497
2016-12-04T14:20:31.459Z,1028.505
2016-12-04T14:23:27.466Z,1028.531
2016-12-04T14:26:23.430Z,1028.538
2016-12-04T14:29:19.470Z,1028.580
2016-12-04T14:32:15.482Z,1028.592
2016-12-04T14:35:11.471Z,1028.529
2016-12-04T14:38:07.516Z,1028.530
2016-12-04T14:41:03.576Z,1028.535
2016-12-04T14:43:59.603Z,1028.534
2016-12-04T14:46:55.676Z,1028.556
2016-12-04T14:49:51.614Z,1028.553
2016-12-04T14:52:47.501Z,1028.574
2016-12-04T14:55:43.332Z,1028.624
2016-12-04T14:58:39.459Z,1028.636
2016-12-04T15:01:35.497Z,1028.588
2016-12-04T15:04:31.466Z,1028.602
2016-12-04T15:07:27.404Z,1028.593
2016-12-04T15:10:23.463Z,1028.586
2016-12-04T15:13:19.483Z,1028.586
2016-12-04T15:16:15.539Z,1028.592
2016-12-04T15:19:11.677Z,1028.606
2016-12-04T15:22:07.831Z,1028.603
2016-12-04T15:25:03.932Z,1028.623
2016-12-04T15:28:00.033Z,1028.607
2016-12-04T15:30:56.040Z,1028.578
2016-12-04T15:33:52.115Z,1028.536
2016-12-04T15:36:48.203Z,1028.552
2016-12-04T15:39:44.366Z,1028.542
2016-12-04T15:42:40.457Z,1028.546
2016-12-04T15:45:36.602Z,1028.592
2016-12-04T15:48:32.724Z,1028.630
2016-12-04T15:51:28.758Z,1028.641
2016-12-04T15:54:24.870Z,1028.680
2016-12-04T15:57:21.066Z,1028.698
2016-12-04T16:00:17.205Z,1028.740
2016-12-04T16:03:13.321Z,1028.773
2016-12-04T16:06:09.460Z,1028.801
2016-12-04T16:09:05.548Z,1028.826
2016-12-04T16:12:01.685Z,1028.849
2016-12-04T16:14:57.719Z,1028.857
2016-12-04T16:17:53.831Z,1028.885
2016-12-04T16:20:49.930Z,1028.897
2016-12-04T16:23:46.051Z,1028.877
2016-12-04T16:26:42.150Z,1029.003
2016-12-04T16:29:38.413Z,1028.866
2016-12-04T16:32:34.551Z,1028.891
2016-12-04T16:35:30.649Z,1028.858
2016-12-04T16:38:26.661Z,1028.871
2016-12-04T16:41:22.698Z,1028.895
2016-12-04T16:44:18.726Z,1028.893
2016-12-04T16:47:14.778Z,1028.886
2016-12-04T16:50:10.998Z,1028.887
2016-12-04T16:53:07.094Z,1028.903
2016-12-04T16:56:03.145Z,1028.884
2016-12-04T16:58:59.123Z,1028.900
2016-12-04T17:01:55.262Z,1028.916
2016-12-04T17:04:51.350Z,1028.916
2016-12-04T17:07:47.463Z,1028.961
2016-12-04T17:10:43.499Z,1028.987
2016-12-04T17:13:39.621Z,1029.030
2016-12-04T17:16:35.685Z,1029.033
2016-12-04T17:19:31.596Z,1029.062
2016-12-04T17:22:27.638Z,1029.097
2016-12-04T17:25:23.657Z,1029.157
2016-12-04T17:28:19.744Z,1029.144
2016-12-04T17:31:15.743Z,1029.164
2016-12-04T17:34:11.826Z,1029.188
2016-12-04T17:37:07.841Z,1029.191
2016-12-04T17:40:03.925Z,1029.169
2016-12-04T17:43:00.043Z,1029.193
2016-12-04T17:45:56.029Z,1029.179
2016-12-04T17:48:52.093Z,1029.127
2016-12-04T17:51:48.132Z,1029.122
2016-12-04T17:54:44.110Z,1029.100
2016-12-04T17:57:40.129Z,1029.115
2016-12-04T18:00:36.167Z,1029.126
2016-12-04T18:03:32.218Z,1029.129
2016-12-04T18:06:28.235Z,1029.169
2016-12-04T18:09:24.192Z,1029.170
2016-12-04T18:12:20.297Z,1029.185
2016-12-04T18:15:16.361Z,1029.240
2016-12-04T18:18:12.402Z,1029.240
2016-12-04T18:21:08.452Z,1029.224
2016-12-04T18:24:04.554Z,1029.223
2016-12-04T18:27:00.603Z,1029.247
2016-12-04T18:29:56.730Z,1029.298
2016-12-04T18:32:52.732Z,1029.312
2016-12-04T18:35:48.826Z,1029.298
2016-12-04T18:38:44.880Z,1029.257
2016-12-04T18:41:41.008Z,1029.244
2016-12-04T18:44:37.115Z,1029.249
2016-12-04T18:47:33.284Z,1029.243
2016-12-04T18:50:29.411Z,1029.239
2016-12-04T18:53:25.727Z,1029.226
2016-12-04T18:56:21.734Z,1029.235
2016-12-04T18:59:17.955Z,1029.228
2016-12-04T19:02:14.025Z,1029.249
2016-12-04T19:05:10.031Z,1029.242
2016-12-04T19:08:06.123Z,1029.234
2016-12-04T19:11:02.228Z,1029.233
2016-12-04T19:13:58.388Z,1029.253
2016-12-04T19:16:54.507Z,1029.236
2016-12-04T19:19:50.678Z,1029.264
2016-12-04T19:22:46.785Z,1029.233
2016-12-04T19:25:42.870Z,1029.257
2016-12-04T19:28:38.875Z,1029.281
2016-12-04T19:31:35.078Z,1029.299
2016-12-04T19:34:31.188Z,1029.265
2016-12-04T19:37:27.317Z,1029.230
2016-12-04T19:40:23.410Z,1029.234
2016-12-04T19:43:19.525Z,1029.276
2016-12-04T19:46:15.643Z,1029.307
2016-12-04T19:49:11.845Z,1029.286
2016-12-04T19:52:07.985Z,1029.278
2016-12-04T19:55:04.088Z,1029.268
2016-12-04T19:58:00.193Z,1029.260
2016-12-04T20:00:56.254Z,1029.230
2016-12-04T20:03:52.367Z,1029.216
2016-12-04T20:06:48.546Z,1029.223
2016-12-04T20:09:44.692Z,1029.170
2016-12-04T20:12:40.870Z,1029.213
2016-12-04T20:29:29.970Z,1029.157
2016-12-04T20:32:22.691Z,1029.177
2016-12-04T20:35:16.383Z,1029.211
2016-12-04T20:38:07.869Z,1029.202
2016-12-04T20:41:02.082Z,1029.222
2016-12-04T20:43:56.230Z,1029.248
2016-12-04T20:46:50.427Z,1029.284
2016-12-04T20:49:44.897Z,1029.277
2016-12-04T20:52:39.505Z,1029.288
2016-12-04T20:55:34.083Z,1029.255
2016-12-04T20:58:28.742Z,1029.273
2016-12-04T21:01:23.522Z,1029.298
2016-12-04T21:04:18.219Z,1029.281
2016-12-04T21:07:13.020Z,1029.266
2016-12-04T21:10:07.871Z,1029.228
2016-12-04T21:13:02.775Z,1029.178
2016-12-04T21:15:57.655Z,1029.151
2016-12-04T21:18:52.525Z,1029.143
2016-12-04T21:21:47.411Z,1029.132
2016-12-04T21:24:42.182Z,1029.118
2016-12-04T21:27:37.067Z,1029.091
2016-12-04T21:30:31.944Z,1029.157
2016-12-04T21:33:26.841Z,1029.157
2016-12-04T21:36:21.706Z,1029.110
2016-12-04T21:39:16.440Z,1029.126
2016-12-04T21:42:11.250Z,1029.123
2016-12-04T21:45:06.051Z,1029.161
2016-12-04T21:48:00.864Z,1029.159
2016-12-04T21:50:55.673Z,1029.168
2016-12-04T21:53:50.527Z,1029.179
2016-12-04T21:56:45.393Z,1029.170
2016-12-04T21:59:40.291Z,1029.135
2016-12-04T22:02:35.123Z,1029.142
2016-12-04T22:05:30.012Z,1029.159
2016-12-04T22:08:24.844Z,1029.165
2016-12-04T22:11:19.789Z,1029.175
2016-12-04T22:14:14.602Z,1029.190
2016-12-04T22:17:09.329Z,1029.178
2016-12-04T22:20:04.193Z,1029.211
2016-12-04T22:22:59.122Z,1029.173
2016-12-04T22:25:53.944Z,1029.139
2016-12-04T22:28:48.852Z,1029.123
2016-12-04T22:31:43.595Z,1029.148
2016-12-04T22:34:38.444Z,1029.160
2016-12-04T22:37:33.335Z,1029.153
2016-12-04T22:40:28.116Z,1029.138
2016-12-04T22:43:22.848Z,1029.117
2016-12-04T22:46:17.639Z,1029.085
2016-12-04T22:49:12.417Z,1029.038
2016-12-04T22:52:07.291Z,1029.025
2016-12-04T22:55:02.177Z,1029.005
2016-12-04T22:57:56.957Z,1029.012
2016-12-04T23:00:51.706Z,1029.058
2016-12-04T23:03:46.510Z,1029.097
2016-12-04T23:06:41.375Z,1029.088
2016-12-04T23:09:36.174Z,1029.060
2016-12-04T23:12:31.057Z,1029.031
2016-12-04T23:15:25.863Z,1029.012
2016-12-04T23:18:20.660Z,1028.972
2016-12-04T23:21:15.470Z,1028.980
2016-12-04T23:24:10.294Z,1028.945
2016-12-04T23:27:05.247Z,1028.946
2016-12-04T23:30:00.095Z,1028.956
2016-12-04T23:32:54.936Z,1028.938
2016-12-04T23:35:49.857Z,1028.916
2016-12-04T23:38:44.725Z,1028.891
2016-12-04T23:41:39.521Z,1028.865
2016-12-04T23:44:34.324Z,1028.904
2016-12-04T23:47:29.173Z,1028.850
2016-12-04T23:50:24.012Z,1028.759
2016-12-04T23:53:18.843Z,1028.734
2016-12-04T23:56:13.679Z,1028.721
2016-12-04T23:59:08.430Z,1028.700
